sensor_id;sensor_type;location;lat;lon;timestamp;temperature;humidity
13686;DHT22;6915;48.296;8.874;2023-11-21T00:00:02;7.00;99.90
13686;DHT22;6915;48.296;8.874;2023-11-21T00:02:35;7.00;99.90
13686;DHT22;6915;48.296;8.874;2023-11-21T00:05:03;7.10;99.90
13686;DHT22;6915;48.296;8.874;2023-11-21T00:07:31;7.20;99.90
13686;DHT22;6915;48.296;8.874;2023-11-21T00:09:58;7.30;99.90
13686;DHT22;6915;48.296;8.874;2023-11-21T00:12:25;7.30;99.90
13686;DHT22;6915;48.296;8.874;2023-11-21T00:14:53;7.30;99.90
13686;DHT22;6915;48.296;8.874;2023-11-21T00:17:20;7.30;99.90
13686;DHT22;6915;48.296;8.874;2023-11-21T00:19:46;7.20;99.90
13686;DHT22;6915;48.296;8.874;2023-11-21T00:22:13;7.30;99.90
13686;DHT22;6915;48.296;8.874;2023-11-21T00:24:42;7.20;99.90
13686;DHT22;6915;48.296;8.874;2023-11-21T00:27:09;7.30;99.90
13686;DHT22;6915;48.296;8.874;2023-11-21T00:29:37;7.30;99.90
13686;DHT22;6915;48.296;8.874;2023-11-21T00:32:05;7.30;99.90
13686;DHT22;6915;48.296;8.874;2023-11-21T00:34:32;7.30;99.90
13686;DHT22;6915;48.296;8.874;2023-11-21T00:37:00;7.20;99.90
13686;DHT22;6915;48.296;8.874;2023-11-21T00:39:28;7.40;99.90
13686;DHT22;6915;48.296;8.874;2023-11-21T00:41:56;7.20;99.90
13686;DHT22;6915;48.296;8.874;2023-11-21T00:44:23;7.20;99.90
13686;DHT22;6915;48.296;8.874;2023-11-21T00:46:50;7.30;99.90
13686;DHT22;6915;48.296;8.874;2023-11-21T00:49:17;7.20;99.90
13686;DHT22;6915;48.296;8.874;2023-11-21T00:51:44;7.20;99.90
13686;DHT22;6915;48.296;8.874;2023-11-21T00:54:10;7.20;99.90
13686;DHT22;6915;48.296;8.874;2023-11-21T00:56:37;7.20;99.90
13686;DHT22;6915;48.296;8.874;2023-11-21T00:59:06;7.30;99.90
13686;DHT22;6915;48.296;8.874;2023-11-21T01:01:33;7.20;99.90
13686;DHT22;6915;48.296;8.874;2023-11-21T01:04:00;7.20;99.90
13686;DHT22;6915;48.296;8.874;2023-11-21T01:06:27;7.20;99.90
13686;DHT22;6915;48.296;8.874;2023-11-21T01:08:55;7.20;99.90
13686;DHT22;6915;48.296;8.874;2023-11-21T01:11:22;7.20;99.90
13686;DHT22;6915;48.296;8.874;2023-11-21T01:13:49;7.10;99.90
13686;DHT22;6915;48.296;8.874;2023-11-21T01:16:17;7.20;99.90
13686;DHT22;6915;48.296;8.874;2023-11-21T01:18:44;7.20;99.90
13686;DHT22;6915;48.296;8.874;2023-11-21T01:21:11;7.30;99.90
13686;DHT22;6915;48.296;8.874;2023-11-21T01:23:37;7.20;99.90
13686;DHT22;6915;48.296;8.874;2023-11-21T01:26:05;7.10;99.90
13686;DHT22;6915;48.296;8.874;2023-11-21T01:28:33;7.10;99.90
13686;DHT22;6915;48.296;8.874;2023-11-21T01:31:00;7.10;99.90
13686;DHT22;6915;48.296;8.874;2023-11-21T01:33:29;7.10;99.90
13686;DHT22;6915;48.296;8.874;2023-11-21T01:35:55;7.10;99.90
13686;DHT22;6915;48.296;8.874;2023-11-21T01:38:22;7.10;99.90
13686;DHT22;6915;48.296;8.874;2023-11-21T01:40:49;7.10;99.90
13686;DHT22;6915;48.296;8.874;2023-11-21T01:43:16;7.20;99.90
13686;DHT22;6915;48.296;8.874;2023-11-21T01:45:43;7.20;99.90
13686;DHT22;6915;48.296;8.874;2023-11-21T01:48:10;7.00;99.90
13686;DHT22;6915;48.296;8.874;2023-11-21T01:50:39;7.20;99.90
13686;DHT22;6915;48.296;8.874;2023-11-21T01:53:06;7.20;99.90
13686;DHT22;6915;48.296;8.874;2023-11-21T01:55:33;7.10;99.90
13686;DHT22;6915;48.296;8.874;2023-11-21T01:58:00;7.10;99.90
13686;DHT22;6915;48.296;8.874;2023-11-21T02:00:27;7.10;99.90
13686;DHT22;6915;48.296;8.874;2023-11-21T02:02:56;7.10;99.90
13686;DHT22;6915;48.296;8.874;2023-11-21T02:05:24;7.10;99.90
13686;DHT22;6915;48.296;8.874;2023-11-21T02:07:53;7.20;99.90
13686;DHT22;6915;48.296;8.874;2023-11-21T02:10:20;7.10;99.90
13686;DHT22;6915;48.296;8.874;2023-11-21T02:12:48;7.10;99.90
13686;DHT22;6915;48.296;8.874;2023-11-21T02:15:17;7.20;99.90
13686;DHT22;6915;48.296;8.874;2023-11-21T02:17:45;7.10;99.90
13686;DHT22;6915;48.296;8.874;2023-11-21T02:20:13;7.10;99.90
13686;DHT22;6915;48.296;8.874;2023-11-21T02:22:41;7.20;99.90
13686;DHT22;6915;48.296;8.874;2023-11-21T02:25:10;7.20;99.90
13686;DHT22;6915;48.296;8.874;2023-11-21T02:27:36;7.20;99.90
13686;DHT22;6915;48.296;8.874;2023-11-21T02:30:04;7.20;99.90
13686;DHT22;6915;48.296;8.874;2023-11-21T02:32:33;7.10;99.90
13686;DHT22;6915;48.296;8.874;2023-11-21T02:35:00;7.10;99.90
13686;DHT22;6915;48.296;8.874;2023-11-21T02:37:28;7.10;99.90
13686;DHT22;6915;48.296;8.874;2023-11-21T02:39:54;7.10;99.90
13686;DHT22;6915;48.296;8.874;2023-11-21T02:42:23;7.10;99.90
13686;DHT22;6915;48.296;8.874;2023-11-21T02:44:50;7.10;99.90
13686;DHT22;6915;48.296;8.874;2023-11-21T02:47:16;7.00;99.90
13686;DHT22;6915;48.296;8.874;2023-11-21T02:49:43;7.00;99.90
13686;DHT22;6915;48.296;8.874;2023-11-21T02:52:10;7.10;99.90
13686;DHT22;6915;48.296;8.874;2023-11-21T02:54:37;7.10;99.90
13686;DHT22;6915;48.296;8.874;2023-11-21T02:57:04;7.00;99.90
13686;DHT22;6915;48.296;8.874;2023-11-21T02:59:34;7.00;99.90
13686;DHT22;6915;48.296;8.874;2023-11-21T03:02:01;7.00;99.90
13686;DHT22;6915;48.296;8.874;2023-11-21T03:04:28;7.00;99.90
13686;DHT22;6915;48.296;8.874;2023-11-21T03:06:55;7.10;99.90
13686;DHT22;6915;48.296;8.874;2023-11-21T03:09:21;7.10;99.90
13686;DHT22;6915;48.296;8.874;2023-11-21T03:11:48;7.00;99.90
13686;DHT22;6915;48.296;8.874;2023-11-21T03:14:15;7.00;99.90
13686;DHT22;6915;48.296;8.874;2023-11-21T03:16:44;6.90;99.90
13686;DHT22;6915;48.296;8.874;2023-11-21T03:19:11;7.00;99.90
13686;DHT22;6915;48.296;8.874;2023-11-21T03:21:38;6.90;99.90
13686;DHT22;6915;48.296;8.874;2023-11-21T03:24:05;6.90;99.90
13686;DHT22;6915;48.296;8.874;2023-11-21T03:26:32;6.90;99.90
13686;DHT22;6915;48.296;8.874;2023-11-21T03:28:59;6.80;99.90
13686;DHT22;6915;48.296;8.874;2023-11-21T03:31:26;6.80;99.90
13686;DHT22;6915;48.296;8.874;2023-11-21T03:33:54;6.90;99.90
13686;DHT22;6915;48.296;8.874;2023-11-21T03:36:21;7.00;99.90
13686;DHT22;6915;48.296;8.874;2023-11-21T03:38:50;6.90;99.90
13686;DHT22;6915;48.296;8.874;2023-11-21T03:41:17;6.90;99.90
13686;DHT22;6915;48.296;8.874;2023-11-21T03:43:44;6.80;99.90
13686;DHT22;6915;48.296;8.874;2023-11-21T03:46:11;6.90;99.90
13686;DHT22;6915;48.296;8.874;2023-11-21T03:48:38;6.90;99.90
13686;DHT22;6915;48.296;8.874;2023-11-21T03:51:07;6.90;99.90
13686;DHT22;6915;48.296;8.874;2023-11-21T03:53:33;6.80;99.90
13686;DHT22;6915;48.296;8.874;2023-11-21T03:56:02;6.80;99.90
13686;DHT22;6915;48.296;8.874;2023-11-21T03:58:29;6.80;99.90
13686;DHT22;6915;48.296;8.874;2023-11-21T04:00:56;6.80;99.90
13686;DHT22;6915;48.296;8.874;2023-11-21T04:03:23;6.70;99.90
13686;DHT22;6915;48.296;8.874;2023-11-21T04:05:50;6.70;99.90
13686;DHT22;6915;48.296;8.874;2023-11-21T04:08:26;6.70;99.90
13686;DHT22;6915;48.296;8.874;2023-11-21T04:10:53;6.70;99.90
13686;DHT22;6915;48.296;8.874;2023-11-21T04:13:21;6.90;99.90
13686;DHT22;6915;48.296;8.874;2023-11-21T04:15:48;6.70;99.90
13686;DHT22;6915;48.296;8.874;2023-11-21T04:18:14;6.70;99.90
13686;DHT22;6915;48.296;8.874;2023-11-21T04:20:41;6.70;99.90
13686;DHT22;6915;48.296;8.874;2023-11-21T04:23:08;6.60;99.90
13686;DHT22;6915;48.296;8.874;2023-11-21T04:25:37;6.60;99.90
13686;DHT22;6915;48.296;8.874;2023-11-21T04:28:04;6.50;99.90
13686;DHT22;6915;48.296;8.874;2023-11-21T04:30:31;6.50;99.90
13686;DHT22;6915;48.296;8.874;2023-11-21T04:32:58;6.40;99.90
13686;DHT22;6915;48.296;8.874;2023-11-21T04:35:25;6.40;99.90
13686;DHT22;6915;48.296;8.874;2023-11-21T04:37:52;6.40;99.90
13686;DHT22;6915;48.296;8.874;2023-11-21T04:40:19;6.50;99.90
13686;DHT22;6915;48.296;8.874;2023-11-21T04:42:47;6.60;99.90
13686;DHT22;6915;48.296;8.874;2023-11-21T04:45:14;6.50;99.90
13686;DHT22;6915;48.296;8.874;2023-11-21T04:47:41;6.50;99.90
13686;DHT22;6915;48.296;8.874;2023-11-21T04:50:09;6.50;99.90
13686;DHT22;6915;48.296;8.874;2023-11-21T04:52:36;6.50;99.90
13686;DHT22;6915;48.296;8.874;2023-11-21T04:55:04;6.50;99.90
13686;DHT22;6915;48.296;8.874;2023-11-21T04:57:32;6.50;99.90
13686;DHT22;6915;48.296;8.874;2023-11-21T05:00:00;6.50;99.90
13686;DHT22;6915;48.296;8.874;2023-11-21T05:02:27;6.40;99.90
13686;DHT22;6915;48.296;8.874;2023-11-21T05:04:54;6.40;99.90
13686;DHT22;6915;48.296;8.874;2023-11-21T05:07:22;6.40;99.90
13686;DHT22;6915;48.296;8.874;2023-11-21T05:09:49;6.40;99.90
13686;DHT22;6915;48.296;8.874;2023-11-21T05:12:16;6.30;99.90
13686;DHT22;6915;48.296;8.874;2023-11-21T05:14:43;6.20;99.90
13686;DHT22;6915;48.296;8.874;2023-11-21T05:17:11;6.10;99.90
13686;DHT22;6915;48.296;8.874;2023-11-21T05:19:38;6.00;99.90
13686;DHT22;6915;48.296;8.874;2023-11-21T05:22:06;6.00;99.90
13686;DHT22;6915;48.296;8.874;2023-11-21T05:24:34;5.90;99.90
13686;DHT22;6915;48.296;8.874;2023-11-21T05:27:00;5.80;99.90
13686;DHT22;6915;48.296;8.874;2023-11-21T05:29:27;5.80;99.90
13686;DHT22;6915;48.296;8.874;2023-11-21T05:31:54;5.70;99.90
13686;DHT22;6915;48.296;8.874;2023-11-21T05:34:22;5.70;99.90
13686;DHT22;6915;48.296;8.874;2023-11-21T05:36:49;5.60;99.90
13686;DHT22;6915;48.296;8.874;2023-11-21T05:39:16;5.50;99.90
13686;DHT22;6915;48.296;8.874;2023-11-21T05:41:45;5.60;99.90
13686;DHT22;6915;48.296;8.874;2023-11-21T05:44:12;5.70;99.90
13686;DHT22;6915;48.296;8.874;2023-11-21T05:46:40;5.70;99.90
13686;DHT22;6915;48.296;8.874;2023-11-21T05:49:08;5.70;99.90
13686;DHT22;6915;48.296;8.874;2023-11-21T05:51:36;5.70;99.90
13686;DHT22;6915;48.296;8.874;2023-11-21T05:54:04;5.70;99.90
13686;DHT22;6915;48.296;8.874;2023-11-21T05:56:31;5.80;99.90
13686;DHT22;6915;48.296;8.874;2023-11-21T05:58:58;5.80;99.90
13686;DHT22;6915;48.296;8.874;2023-11-21T06:01:25;5.80;99.90
13686;DHT22;6915;48.296;8.874;2023-11-21T06:03:53;5.80;99.90
13686;DHT22;6915;48.296;8.874;2023-11-21T06:06:21;5.80;99.90
13686;DHT22;6915;48.296;8.874;2023-11-21T06:08:51;5.80;99.90
13686;DHT22;6915;48.296;8.874;2023-11-21T06:11:18;5.80;99.90
13686;DHT22;6915;48.296;8.874;2023-11-21T06:13:45;5.80;99.90
13686;DHT22;6915;48.296;8.874;2023-11-21T06:16:13;5.80;99.90
13686;DHT22;6915;48.296;8.874;2023-11-21T06:18:42;5.90;99.90
13686;DHT22;6915;48.296;8.874;2023-11-21T06:21:10;5.80;99.90
13686;DHT22;6915;48.296;8.874;2023-11-21T06:23:37;5.70;99.90
13686;DHT22;6915;48.296;8.874;2023-11-21T06:26:06;5.70;99.90
13686;DHT22;6915;48.296;8.874;2023-11-21T06:28:34;5.80;99.90
13686;DHT22;6915;48.296;8.874;2023-11-21T06:31:01;5.90;99.90
13686;DHT22;6915;48.296;8.874;2023-11-21T06:33:30;5.80;99.90
13686;DHT22;6915;48.296;8.874;2023-11-21T06:35:57;5.80;99.90
13686;DHT22;6915;48.296;8.874;2023-11-21T06:38:30;5.80;99.90
13686;DHT22;6915;48.296;8.874;2023-11-21T06:40:58;5.90;99.90
13686;DHT22;6915;48.296;8.874;2023-11-21T06:43:29;5.90;99.90
13686;DHT22;6915;48.296;8.874;2023-11-21T06:45:57;5.90;99.90
13686;DHT22;6915;48.296;8.874;2023-11-21T06:48:24;6.00;99.90
13686;DHT22;6915;48.296;8.874;2023-11-21T06:50:51;6.10;99.90
13686;DHT22;6915;48.296;8.874;2023-11-21T06:53:18;6.20;99.90
13686;DHT22;6915;48.296;8.874;2023-11-21T06:55:46;6.20;99.90
13686;DHT22;6915;48.296;8.874;2023-11-21T06:58:13;6.10;99.90
13686;DHT22;6915;48.296;8.874;2023-11-21T07:00:42;6.20;99.90
13686;DHT22;6915;48.296;8.874;2023-11-21T07:03:12;6.30;99.90
13686;DHT22;6915;48.296;8.874;2023-11-21T07:05:39;6.20;99.90
13686;DHT22;6915;48.296;8.874;2023-11-21T07:08:06;6.30;99.90
13686;DHT22;6915;48.296;8.874;2023-11-21T07:10:33;6.40;99.90
13686;DHT22;6915;48.296;8.874;2023-11-21T07:13:00;6.40;99.90
13686;DHT22;6915;48.296;8.874;2023-11-21T07:15:27;6.50;99.90
13686;DHT22;6915;48.296;8.874;2023-11-21T07:17:56;6.50;99.90
13686;DHT22;6915;48.296;8.874;2023-11-21T07:20:22;6.70;99.90
13686;DHT22;6915;48.296;8.874;2023-11-21T07:22:49;6.50;99.90
13686;DHT22;6915;48.296;8.874;2023-11-21T07:25:18;6.50;99.90
13686;DHT22;6915;48.296;8.874;2023-11-21T07:27:45;6.60;99.90
13686;DHT22;6915;48.296;8.874;2023-11-21T07:30:13;6.60;99.90
13686;DHT22;6915;48.296;8.874;2023-11-21T07:32:41;6.70;99.90
13686;DHT22;6915;48.296;8.874;2023-11-21T07:35:10;6.80;99.90
13686;DHT22;6915;48.296;8.874;2023-11-21T07:37:37;6.80;99.90
13686;DHT22;6915;48.296;8.874;2023-11-21T07:40:05;6.90;99.90
13686;DHT22;6915;48.296;8.874;2023-11-21T07:42:33;7.00;99.90
13686;DHT22;6915;48.296;8.874;2023-11-21T07:45:00;7.00;99.90
13686;DHT22;6915;48.296;8.874;2023-11-21T07:47:28;7.00;99.90
13686;DHT22;6915;48.296;8.874;2023-11-21T07:49:55;7.00;99.90
13686;DHT22;6915;48.296;8.874;2023-11-21T07:52:23;7.00;99.90
13686;DHT22;6915;48.296;8.874;2023-11-21T07:54:50;7.00;99.90
13686;DHT22;6915;48.296;8.874;2023-11-21T07:57:17;7.00;99.90
13686;DHT22;6915;48.296;8.874;2023-11-21T07:59:44;7.10;99.90
13686;DHT22;6915;48.296;8.874;2023-11-21T08:02:11;7.20;99.90
13686;DHT22;6915;48.296;8.874;2023-11-21T08:04:38;7.20;99.90
13686;DHT22;6915;48.296;8.874;2023-11-21T08:07:05;7.20;99.90
13686;DHT22;6915;48.296;8.874;2023-11-21T08:09:33;7.30;99.90
13686;DHT22;6915;48.296;8.874;2023-11-21T08:12:00;7.30;99.90
13686;DHT22;6915;48.296;8.874;2023-11-21T08:14:30;7.50;99.90
13686;DHT22;6915;48.296;8.874;2023-11-21T08:16:57;7.50;99.90
13686;DHT22;6915;48.296;8.874;2023-11-21T08:19:24;7.50;99.90
13686;DHT22;6915;48.296;8.874;2023-11-21T08:21:51;7.60;99.90
13686;DHT22;6915;48.296;8.874;2023-11-21T08:24:20;7.60;99.90
13686;DHT22;6915;48.296;8.874;2023-11-21T08:26:48;7.70;99.90
13686;DHT22;6915;48.296;8.874;2023-11-21T08:29:16;7.70;99.90
13686;DHT22;6915;48.296;8.874;2023-11-21T08:31:43;7.60;99.90
13686;DHT22;6915;48.296;8.874;2023-11-21T08:34:12;7.70;99.90
13686;DHT22;6915;48.296;8.874;2023-11-21T08:36:42;7.70;99.90
13686;DHT22;6915;48.296;8.874;2023-11-21T08:39:09;7.70;99.90
13686;DHT22;6915;48.296;8.874;2023-11-21T08:41:36;7.80;99.90
13686;DHT22;6915;48.296;8.874;2023-11-21T08:44:04;7.80;99.90
13686;DHT22;6915;48.296;8.874;2023-11-21T08:46:32;7.80;99.90
13686;DHT22;6915;48.296;8.874;2023-11-21T08:49:00;7.80;99.90
13686;DHT22;6915;48.296;8.874;2023-11-21T08:51:27;7.80;99.90
13686;DHT22;6915;48.296;8.874;2023-11-21T08:53:54;7.80;99.90
13686;DHT22;6915;48.296;8.874;2023-11-21T08:56:24;7.80;99.90
13686;DHT22;6915;48.296;8.874;2023-11-21T08:58:51;7.80;99.90
13686;DHT22;6915;48.296;8.874;2023-11-21T09:01:19;7.80;99.90
13686;DHT22;6915;48.296;8.874;2023-11-21T09:03:47;7.80;99.90
13686;DHT22;6915;48.296;8.874;2023-11-21T09:06:15;7.80;99.90
13686;DHT22;6915;48.296;8.874;2023-11-21T09:08:42;7.90;99.90
13686;DHT22;6915;48.296;8.874;2023-11-21T09:11:09;7.90;99.90
13686;DHT22;6915;48.296;8.874;2023-11-21T09:13:36;8.00;99.90
13686;DHT22;6915;48.296;8.874;2023-11-21T09:16:03;8.00;99.90
13686;DHT22;6915;48.296;8.874;2023-11-21T09:18:32;8.10;99.90
13686;DHT22;6915;48.296;8.874;2023-11-21T09:20:59;8.10;99.90
13686;DHT22;6915;48.296;8.874;2023-11-21T09:23:26;8.10;99.90
13686;DHT22;6915;48.296;8.874;2023-11-21T09:25:53;8.10;99.90
13686;DHT22;6915;48.296;8.874;2023-11-21T09:28:22;8.10;99.90
13686;DHT22;6915;48.296;8.874;2023-11-21T09:30:49;8.20;99.90
13686;DHT22;6915;48.296;8.874;2023-11-21T09:33:16;8.20;99.90
13686;DHT22;6915;48.296;8.874;2023-11-21T09:35:45;8.10;99.90
13686;DHT22;6915;48.296;8.874;2023-11-21T09:38:13;8.10;99.90
13686;DHT22;6915;48.296;8.874;2023-11-21T09:40:40;8.10;99.90
13686;DHT22;6915;48.296;8.874;2023-11-21T09:43:09;8.20;99.90
13686;DHT22;6915;48.296;8.874;2023-11-21T09:45:45;8.20;99.90
13686;DHT22;6915;48.296;8.874;2023-11-21T09:48:13;8.30;99.90
13686;DHT22;6915;48.296;8.874;2023-11-21T09:50:42;8.30;99.90
13686;DHT22;6915;48.296;8.874;2023-11-21T09:53:13;8.40;99.90
13686;DHT22;6915;48.296;8.874;2023-11-21T09:55:42;8.40;99.90
13686;DHT22;6915;48.296;8.874;2023-11-21T09:58:10;8.40;99.90
13686;DHT22;6915;48.296;8.874;2023-11-21T10:00:40;8.50;99.90
13686;DHT22;6915;48.296;8.874;2023-11-21T10:03:07;8.30;99.90
13686;DHT22;6915;48.296;8.874;2023-11-21T10:05:34;8.20;99.90
13686;DHT22;6915;48.296;8.874;2023-11-21T10:08:02;8.30;99.90
13686;DHT22;6915;48.296;8.874;2023-11-21T10:10:33;8.30;99.90
13686;DHT22;6915;48.296;8.874;2023-11-21T10:13:03;8.40;99.90
13686;DHT22;6915;48.296;8.874;2023-11-21T10:15:33;8.30;99.90
13686;DHT22;6915;48.296;8.874;2023-11-21T10:18:02;8.30;99.90
13686;DHT22;6915;48.296;8.874;2023-11-21T10:20:30;8.30;99.90
13686;DHT22;6915;48.296;8.874;2023-11-21T10:22:59;8.30;99.90
13686;DHT22;6915;48.296;8.874;2023-11-21T10:25:27;8.30;99.90
13686;DHT22;6915;48.296;8.874;2023-11-21T10:27:57;8.20;99.90
13686;DHT22;6915;48.296;8.874;2023-11-21T10:30:28;8.30;99.90
13686;DHT22;6915;48.296;8.874;2023-11-21T10:32:59;8.20;99.90
13686;DHT22;6915;48.296;8.874;2023-11-21T10:35:48;8.20;99.90
13686;DHT22;6915;48.296;8.874;2023-11-21T10:38:16;8.20;99.90
13686;DHT22;6915;48.296;8.874;2023-11-21T10:40:44;8.20;99.90
13686;DHT22;6915;48.296;8.874;2023-11-21T10:43:13;8.30;99.90
13686;DHT22;6915;48.296;8.874;2023-11-21T10:45:42;8.20;99.90
13686;DHT22;6915;48.296;8.874;2023-11-21T10:48:10;8.20;99.90
13686;DHT22;6915;48.296;8.874;2023-11-21T10:50:37;8.20;99.90
13686;DHT22;6915;48.296;8.874;2023-11-21T10:53:05;8.20;99.90
13686;DHT22;6915;48.296;8.874;2023-11-21T10:55:33;8.20;99.90
13686;DHT22;6915;48.296;8.874;2023-11-21T10:58:01;8.20;99.90
13686;DHT22;6915;48.296;8.874;2023-11-21T11:00:32;8.10;99.90
13686;DHT22;6915;48.296;8.874;2023-11-21T11:03:00;8.10;99.90
13686;DHT22;6915;48.296;8.874;2023-11-21T11:05:27;8.10;99.90
13686;DHT22;6915;48.296;8.874;2023-11-21T11:07:58;8.00;99.90
13686;DHT22;6915;48.296;8.874;2023-11-21T11:10:27;8.00;99.90
13686;DHT22;6915;48.296;8.874;2023-11-21T11:12:55;7.90;99.90
13686;DHT22;6915;48.296;8.874;2023-11-21T11:15:23;8.10;99.90
13686;DHT22;6915;48.296;8.874;2023-11-21T11:17:52;7.90;99.90
13686;DHT22;6915;48.296;8.874;2023-11-21T11:20:23;7.90;99.90
13686;DHT22;6915;48.296;8.874;2023-11-21T11:23:04;7.90;99.90
13686;DHT22;6915;48.296;8.874;2023-11-21T11:26:01;8.00;99.90
13686;DHT22;6915;48.296;8.874;2023-11-21T11:28:38;8.10;99.90
13686;DHT22;6915;48.296;8.874;2023-11-21T11:31:14;8.20;99.90
13686;DHT22;6915;48.296;8.874;2023-11-21T11:33:50;8.50;99.90
13686;DHT22;6915;48.296;8.874;2023-11-21T11:36:25;8.40;99.90
13686;DHT22;6915;48.296;8.874;2023-11-21T11:38:52;8.50;99.90
13686;DHT22;6915;48.296;8.874;2023-11-21T11:41:25;8.40;99.90
13686;DHT22;6915;48.296;8.874;2023-11-21T11:43:53;8.40;99.90
13686;DHT22;6915;48.296;8.874;2023-11-21T11:46:20;8.40;99.90
13686;DHT22;6915;48.296;8.874;2023-11-21T11:49:02;8.40;99.90
13686;DHT22;6915;48.296;8.874;2023-11-21T11:51:29;8.40;99.90
13686;DHT22;6915;48.296;8.874;2023-11-21T11:53:57;8.40;99.90
13686;DHT22;6915;48.296;8.874;2023-11-21T11:56:28;8.50;99.90
13686;DHT22;6915;48.296;8.874;2023-11-21T11:58:57;8.30;99.90
13686;DHT22;6915;48.296;8.874;2023-11-21T12:01:26;8.40;99.90
13686;DHT22;6915;48.296;8.874;2023-11-21T12:04:26;8.40;99.90
13686;DHT22;6915;48.296;8.874;2023-11-21T12:07:01;8.40;99.90
13686;DHT22;6915;48.296;8.874;2023-11-21T12:09:30;8.40;99.90
13686;DHT22;6915;48.296;8.874;2023-11-21T12:11:58;8.40;99.90
13686;DHT22;6915;48.296;8.874;2023-11-21T12:14:25;8.50;99.90
13686;DHT22;6915;48.296;8.874;2023-11-21T12:16:53;8.50;99.90
13686;DHT22;6915;48.296;8.874;2023-11-21T12:19:39;8.50;99.90
13686;DHT22;6915;48.296;8.874;2023-11-21T12:22:06;8.40;99.90
13686;DHT22;6915;48.296;8.874;2023-11-21T12:24:33;8.50;99.90
13686;DHT22;6915;48.296;8.874;2023-11-21T12:27:00;8.50;99.90
13686;DHT22;6915;48.296;8.874;2023-11-21T12:29:27;8.50;99.90
13686;DHT22;6915;48.296;8.874;2023-11-21T12:31:55;8.60;99.90
13686;DHT22;6915;48.296;8.874;2023-11-21T12:34:22;8.60;99.90
13686;DHT22;6915;48.296;8.874;2023-11-21T12:36:50;8.50;99.90
13686;DHT22;6915;48.296;8.874;2023-11-21T12:39:20;8.60;99.90
13686;DHT22;6915;48.296;8.874;2023-11-21T12:41:48;8.60;99.90
13686;DHT22;6915;48.296;8.874;2023-11-21T12:44:15;8.60;99.90
13686;DHT22;6915;48.296;8.874;2023-11-21T12:46:43;8.40;99.90
13686;DHT22;6915;48.296;8.874;2023-11-21T12:49:12;8.70;99.90
13686;DHT22;6915;48.296;8.874;2023-11-21T12:51:43;8.50;99.90
13686;DHT22;6915;48.296;8.874;2023-11-21T12:54:12;8.40;99.90
13686;DHT22;6915;48.296;8.874;2023-11-21T12:56:39;8.40;99.90
13686;DHT22;6915;48.296;8.874;2023-11-21T12:59:06;8.30;99.90
13686;DHT22;6915;48.296;8.874;2023-11-21T13:01:41;8.20;99.90
13686;DHT22;6915;48.296;8.874;2023-11-21T13:04:08;8.20;99.90
13686;DHT22;6915;48.296;8.874;2023-11-21T13:06:36;8.10;99.90
13686;DHT22;6915;48.296;8.874;2023-11-21T13:09:06;7.90;99.90
13686;DHT22;6915;48.296;8.874;2023-11-21T13:11:37;7.80;99.90
13686;DHT22;6915;48.296;8.874;2023-11-21T13:14:06;7.90;99.90
13686;DHT22;6915;48.296;8.874;2023-11-21T13:16:33;8.00;99.90
13686;DHT22;6915;48.296;8.874;2023-11-21T13:19:00;7.90;99.90
13686;DHT22;6915;48.296;8.874;2023-11-21T13:21:27;7.80;99.90
13686;DHT22;6915;48.296;8.874;2023-11-21T13:23:54;7.90;99.90
13686;DHT22;6915;48.296;8.874;2023-11-21T13:26:21;7.80;99.90
13686;DHT22;6915;48.296;8.874;2023-11-21T13:28:52;8.00;99.90
13686;DHT22;6915;48.296;8.874;2023-11-21T13:31:19;7.90;99.90
13686;DHT22;6915;48.296;8.874;2023-11-21T13:33:52;7.80;99.90
13686;DHT22;6915;48.296;8.874;2023-11-21T13:36:22;8.00;99.90
13686;DHT22;6915;48.296;8.874;2023-11-21T13:38:49;7.90;99.90
13686;DHT22;6915;48.296;8.874;2023-11-21T13:41:16;7.90;99.90
13686;DHT22;6915;48.296;8.874;2023-11-21T13:43:43;7.90;99.90
13686;DHT22;6915;48.296;8.874;2023-11-21T13:46:17;7.90;99.90
13686;DHT22;6915;48.296;8.874;2023-11-21T13:48:47;7.90;99.90
13686;DHT22;6915;48.296;8.874;2023-11-21T13:51:16;7.90;99.90
13686;DHT22;6915;48.296;8.874;2023-11-21T13:53:44;8.00;99.90
13686;DHT22;6915;48.296;8.874;2023-11-21T13:56:13;8.00;99.90
13686;DHT22;6915;48.296;8.874;2023-11-21T13:58:44;7.90;99.90
13686;DHT22;6915;48.296;8.874;2023-11-21T14:01:17;7.80;99.90
13686;DHT22;6915;48.296;8.874;2023-11-21T14:04:07;7.80;99.90
13686;DHT22;6915;48.296;8.874;2023-11-21T14:06:46;7.80;99.90
13686;DHT22;6915;48.296;8.874;2023-11-21T14:09:14;7.70;99.90
13686;DHT22;6915;48.296;8.874;2023-11-21T14:11:49;7.80;99.90
13686;DHT22;6915;48.296;8.874;2023-11-21T14:16:54;7.70;99.90
13686;DHT22;6915;48.296;8.874;2023-11-21T14:19:21;7.60;99.90
13686;DHT22;6915;48.296;8.874;2023-11-21T14:21:53;7.60;99.90
13686;DHT22;6915;48.296;8.874;2023-11-21T14:24:20;7.70;99.90
13686;DHT22;6915;48.296;8.874;2023-11-21T14:27:07;7.70;99.90
13686;DHT22;6915;48.296;8.874;2023-11-21T14:29:36;7.70;99.90
13686;DHT22;6915;48.296;8.874;2023-11-21T14:32:07;7.70;99.90
13686;DHT22;6915;48.296;8.874;2023-11-21T14:34:34;7.70;99.90
13686;DHT22;6915;48.296;8.874;2023-11-21T14:37:02;7.70;99.90
13686;DHT22;6915;48.296;8.874;2023-11-21T14:39:29;7.60;99.90
13686;DHT22;6915;48.296;8.874;2023-11-21T14:41:57;7.60;99.90
13686;DHT22;6915;48.296;8.874;2023-11-21T14:44:26;7.60;99.90
13686;DHT22;6915;48.296;8.874;2023-11-21T14:46:58;7.50;99.90
13686;DHT22;6915;48.296;8.874;2023-11-21T14:49:27;7.50;99.90
13686;DHT22;6915;48.296;8.874;2023-11-21T14:52:04;7.50;99.90
13686;DHT22;6915;48.296;8.874;2023-11-21T14:54:33;7.60;99.90
13686;DHT22;6915;48.296;8.874;2023-11-21T14:57:08;7.70;99.90
13686;DHT22;6915;48.296;8.874;2023-11-21T14:59:37;7.60;99.90
13686;DHT22;6915;48.296;8.874;2023-11-21T15:02:03;7.60;99.90
13686;DHT22;6915;48.296;8.874;2023-11-21T15:04:42;7.50;99.90
13686;DHT22;6915;48.296;8.874;2023-11-21T15:07:08;7.50;99.90
13686;DHT22;6915;48.296;8.874;2023-11-21T15:09:36;7.50;99.90
13686;DHT22;6915;48.296;8.874;2023-11-21T15:12:07;7.40;99.90
13686;DHT22;6915;48.296;8.874;2023-11-21T15:14:47;7.30;99.90
13686;DHT22;6915;48.296;8.874;2023-11-21T15:17:18;7.30;99.90
13686;DHT22;6915;48.296;8.874;2023-11-21T15:19:51;7.40;99.90
13686;DHT22;6915;48.296;8.874;2023-11-21T15:22:17;7.30;99.90
13686;DHT22;6915;48.296;8.874;2023-11-21T15:24:44;7.40;99.90
13686;DHT22;6915;48.296;8.874;2023-11-21T15:27:13;7.20;99.90
13686;DHT22;6915;48.296;8.874;2023-11-21T15:29:41;7.30;99.90
13686;DHT22;6915;48.296;8.874;2023-11-21T15:32:09;7.20;99.90
13686;DHT22;6915;48.296;8.874;2023-11-21T15:34:37;7.30;99.90
13686;DHT22;6915;48.296;8.874;2023-11-21T15:37:07;7.20;99.90
13686;DHT22;6915;48.296;8.874;2023-11-21T15:39:37;7.30;99.90
13686;DHT22;6915;48.296;8.874;2023-11-21T15:42:04;7.20;99.90
13686;DHT22;6915;48.296;8.874;2023-11-21T15:44:38;7.20;99.90
13686;DHT22;6915;48.296;8.874;2023-11-21T15:47:05;7.10;99.90
13686;DHT22;6915;48.296;8.874;2023-11-21T15:49:34;7.00;99.90
13686;DHT22;6915;48.296;8.874;2023-11-21T15:52:02;6.80;99.90
13686;DHT22;6915;48.296;8.874;2023-11-21T15:54:30;6.80;99.90
13686;DHT22;6915;48.296;8.874;2023-11-21T15:57:00;6.80;99.90
13686;DHT22;6915;48.296;8.874;2023-11-21T15:59:28;6.70;99.90
13686;DHT22;6915;48.296;8.874;2023-11-21T16:01:57;6.70;99.90
13686;DHT22;6915;48.296;8.874;2023-11-21T16:04:24;6.80;99.90
13686;DHT22;6915;48.296;8.874;2023-11-21T16:06:52;6.70;99.90
13686;DHT22;6915;48.296;8.874;2023-11-21T16:09:19;6.80;99.90
13686;DHT22;6915;48.296;8.874;2023-11-21T16:11:50;6.80;99.90